Terminal Aerodrome Forecast
Issued by NWS Tulsa, OK

Home | Current Version | Previous Version | Text Only | Print | Product List | Glossary On
Versions: 1 2 3 4 5 6 7 8 9 10 11 12 13 14 15
000
FTUS44 KTSA 250520
TAFFSM
TAF
KFSM 250520Z 2506/2606 06010KT P6SM BKN100
     FM250800 09010KT P6SM VCTS SCT060CB BKN100
      TEMPO 2508/2511 3SM -TSRA BKN060CB
     FM251200 07004KT P6SM OVC020
     FM252100 19013KT P6SM BKN040
     FM260300 09005KT P6SM BKN100=

USA.gov is the U.S. government's official web portal to all federal, state and local government web resources and services.